sensor_id;sensor_type;location;lat;lon;timestamp;P1;durP1;ratioP1;P2;durP2;ratioP2
45522;SDS011;31254;51.680;5.394;2023-01-09T00:01:13;1.17;;;0.40;;
45522;SDS011;31254;51.680;5.394;2023-01-09T00:03:44;1.02;;;0.40;;
45522;SDS011;31254;51.680;5.394;2023-01-09T00:06:13;1.38;;;0.50;;
45522;SDS011;31254;51.680;5.394;2023-01-09T00:08:40;2.13;;;0.50;;
45522;SDS011;31254;51.680;5.394;2023-01-09T00:11:07;1.50;;;0.40;;
45522;SDS011;31254;51.680;5.394;2023-01-09T00:13:35;0.93;;;0.45;;
45522;SDS011;31254;51.680;5.394;2023-01-09T00:16:04;0.65;;;0.50;;
45522;SDS011;31254;51.680;5.394;2023-01-09T00:18:31;2.50;;;0.65;;
45522;SDS011;31254;51.680;5.394;2023-01-09T00:20:59;0.75;;;0.40;;
45522;SDS011;31254;51.680;5.394;2023-01-09T00:23:29;0.63;;;0.43;;
45522;SDS011;31254;51.680;5.394;2023-01-09T00:26:03;1.40;;;0.60;;
45522;SDS011;31254;51.680;5.394;2023-01-09T00:28:31;0.88;;;0.50;;
45522;SDS011;31254;51.680;5.394;2023-01-09T00:30:58;1.00;;;0.50;;
45522;SDS011;31254;51.680;5.394;2023-01-09T00:33:33;2.92;;;0.60;;
45522;SDS011;31254;51.680;5.394;2023-01-09T00:36:02;1.30;;;0.60;;
45522;SDS011;31254;51.680;5.394;2023-01-09T00:38:28;4.47;;;0.63;;
45522;SDS011;31254;51.680;5.394;2023-01-09T00:40:55;2.05;;;0.77;;
45522;SDS011;31254;51.680;5.394;2023-01-09T00:43:23;1.77;;;0.60;;
45522;SDS011;31254;51.680;5.394;2023-01-09T00:45:55;1.08;;;0.65;;
45522;SDS011;31254;51.680;5.394;2023-01-09T00:48:23;1.75;;;0.55;;
45522;SDS011;31254;51.680;5.394;2023-01-09T00:50:52;1.20;;;0.60;;
45522;SDS011;31254;51.680;5.394;2023-01-09T00:53:23;1.25;;;0.50;;
45522;SDS011;31254;51.680;5.394;2023-01-09T00:55:57;1.13;;;0.60;;
45522;SDS011;31254;51.680;5.394;2023-01-09T00:58:26;1.38;;;0.60;;
45522;SDS011;31254;51.680;5.394;2023-01-09T01:00:53;5.57;;;0.93;;
45522;SDS011;31254;51.680;5.394;2023-01-09T01:03:20;1.77;;;0.75;;
45522;SDS011;31254;51.680;5.394;2023-01-09T01:05:46;3.03;;;0.68;;
45522;SDS011;31254;51.680;5.394;2023-01-09T01:08:33;1.55;;;0.60;;
45522;SDS011;31254;51.680;5.394;2023-01-09T01:11:07;1.27;;;0.63;;
45522;SDS011;31254;51.680;5.394;2023-01-09T01:13:35;3.70;;;0.70;;
45522;SDS011;31254;51.680;5.394;2023-01-09T01:16:03;4.13;;;0.70;;
45522;SDS011;31254;51.680;5.394;2023-01-09T01:18:31;0.95;;;0.60;;
45522;SDS011;31254;51.680;5.394;2023-01-09T01:20:57;2.17;;;0.90;;
45522;SDS011;31254;51.680;5.394;2023-01-09T01:23:24;1.50;;;0.80;;
45522;SDS011;31254;51.680;5.394;2023-01-09T01:25:51;2.83;;;0.85;;
45522;SDS011;31254;51.680;5.394;2023-01-09T01:28:18;1.33;;;0.75;;
45522;SDS011;31254;51.680;5.394;2023-01-09T01:30:44;2.15;;;0.80;;
45522;SDS011;31254;51.680;5.394;2023-01-09T01:33:13;3.05;;;1.00;;
45522;SDS011;31254;51.680;5.394;2023-01-09T01:35:40;5.22;;;0.90;;
45522;SDS011;31254;51.680;5.394;2023-01-09T01:38:06;3.50;;;0.95;;
45522;SDS011;31254;51.680;5.394;2023-01-09T01:40:33;2.17;;;0.95;;
45522;SDS011;31254;51.680;5.394;2023-01-09T01:43:01;2.47;;;0.90;;
45522;SDS011;31254;51.680;5.394;2023-01-09T01:45:28;2.30;;;1.00;;
45522;SDS011;31254;51.680;5.394;2023-01-09T01:47:59;2.03;;;0.73;;
45522;SDS011;31254;51.680;5.394;2023-01-09T01:53:36;1.90;;;0.85;;
45522;SDS011;31254;51.680;5.394;2023-01-09T01:58:54;5.25;;;1.25;;
45522;SDS011;31254;51.680;5.394;2023-01-09T02:01:28;2.30;;;0.93;;
45522;SDS011;31254;51.680;5.394;2023-01-09T02:03:56;3.22;;;1.10;;
45522;SDS011;31254;51.680;5.394;2023-01-09T02:06:25;2.13;;;0.88;;
45522;SDS011;31254;51.680;5.394;2023-01-09T02:08:52;1.52;;;1.00;;
45522;SDS011;31254;51.680;5.394;2023-01-09T02:11:20;3.25;;;1.00;;
45522;SDS011;31254;51.680;5.394;2023-01-09T02:13:47;3.25;;;1.10;;
45522;SDS011;31254;51.680;5.394;2023-01-09T02:16:31;2.92;;;0.90;;
45522;SDS011;31254;51.680;5.394;2023-01-09T02:21:49;7.15;;;1.25;;
45522;SDS011;31254;51.680;5.394;2023-01-09T02:24:27;2.47;;;1.00;;
45522;SDS011;31254;51.680;5.394;2023-01-09T02:29:43;6.15;;;1.48;;
45522;SDS011;31254;51.680;5.394;2023-01-09T02:40:43;8.23;;;1.30;;
45522;SDS011;31254;51.680;5.394;2023-01-09T02:43:17;4.55;;;1.40;;
45522;SDS011;31254;51.680;5.394;2023-01-09T02:45:44;5.07;;;1.23;;
45522;SDS011;31254;51.680;5.394;2023-01-09T02:48:13;3.33;;;1.27;;
45522;SDS011;31254;51.680;5.394;2023-01-09T02:50:41;3.63;;;1.48;;
45522;SDS011;31254;51.680;5.394;2023-01-09T03:07:44;3.05;;;1.10;;
45522;SDS011;31254;51.680;5.394;2023-01-09T03:10:20;5.07;;;1.38;;
45522;SDS011;31254;51.680;5.394;2023-01-09T03:12:57;6.75;;;1.40;;
45522;SDS011;31254;51.680;5.394;2023-01-09T03:15:28;5.45;;;1.30;;
45522;SDS011;31254;51.680;5.394;2023-01-09T03:17:59;4.50;;;1.40;;
45522;SDS011;31254;51.680;5.394;2023-01-09T03:20:29;3.53;;;1.10;;
45522;SDS011;31254;51.680;5.394;2023-01-09T03:22:58;3.20;;;1.35;;
45522;SDS011;31254;51.680;5.394;2023-01-09T03:25:28;11.30;;;1.60;;
45522;SDS011;31254;51.680;5.394;2023-01-09T03:27:56;3.83;;;1.27;;
45522;SDS011;31254;51.680;5.394;2023-01-09T03:30:28;5.53;;;1.25;;
45522;SDS011;31254;51.680;5.394;2023-01-09T03:32:56;4.00;;;1.50;;
45522;SDS011;31254;51.680;5.394;2023-01-09T03:35:23;3.75;;;1.50;;
45522;SDS011;31254;51.680;5.394;2023-01-09T03:37:52;3.42;;;0.90;;
45522;SDS011;31254;51.680;5.394;2023-01-09T03:40:19;6.28;;;1.55;;
45522;SDS011;31254;51.680;5.394;2023-01-09T03:42:46;6.50;;;1.30;;
45522;SDS011;31254;51.680;5.394;2023-01-09T03:45:15;6.35;;;1.45;;
45522;SDS011;31254;51.680;5.394;2023-01-09T03:47:44;2.00;;;1.00;;
45522;SDS011;31254;51.680;5.394;2023-01-09T03:50:11;7.10;;;1.40;;
45522;SDS011;31254;51.680;5.394;2023-01-09T03:52:37;6.82;;;1.10;;
45522;SDS011;31254;51.680;5.394;2023-01-09T03:55:06;5.78;;;0.90;;
45522;SDS011;31254;51.680;5.394;2023-01-09T03:57:33;5.60;;;1.33;;
45522;SDS011;31254;51.680;5.394;2023-01-09T04:00:00;6.40;;;1.10;;
45522;SDS011;31254;51.680;5.394;2023-01-09T04:02:26;6.32;;;1.40;;
45522;SDS011;31254;51.680;5.394;2023-01-09T04:04:55;1.98;;;0.93;;
45522;SDS011;31254;51.680;5.394;2023-01-09T04:07:22;3.55;;;1.10;;
45522;SDS011;31254;51.680;5.394;2023-01-09T04:09:48;6.65;;;1.30;;
45522;SDS011;31254;51.680;5.394;2023-01-09T04:12:17;5.45;;;1.42;;
45522;SDS011;31254;51.680;5.394;2023-01-09T04:14:46;6.53;;;1.30;;
45522;SDS011;31254;51.680;5.394;2023-01-09T04:17:15;10.25;;;1.38;;
45522;SDS011;31254;51.680;5.394;2023-01-09T04:19:42;10.02;;;1.20;;
45522;SDS011;31254;51.680;5.394;2023-01-09T04:22:08;6.80;;;1.38;;
45522;SDS011;31254;51.680;5.394;2023-01-09T04:24:35;3.72;;;1.30;;
45522;SDS011;31254;51.680;5.394;2023-01-09T04:27:01;6.75;;;1.30;;
45522;SDS011;31254;51.680;5.394;2023-01-09T04:29:29;7.28;;;1.35;;
45522;SDS011;31254;51.680;5.394;2023-01-09T04:31:55;3.72;;;1.08;;
45522;SDS011;31254;51.680;5.394;2023-01-09T04:34:22;8.70;;;1.30;;
45522;SDS011;31254;51.680;5.394;2023-01-09T04:36:51;4.82;;;1.50;;
45522;SDS011;31254;51.680;5.394;2023-01-09T04:39:21;6.95;;;1.40;;
45522;SDS011;31254;51.680;5.394;2023-01-09T04:41:47;4.88;;;1.42;;
45522;SDS011;31254;51.680;5.394;2023-01-09T04:44:16;4.90;;;1.50;;
45522;SDS011;31254;51.680;5.394;2023-01-09T04:46:44;3.60;;;1.10;;
45522;SDS011;31254;51.680;5.394;2023-01-09T04:49:14;2.08;;;1.10;;
45522;SDS011;31254;51.680;5.394;2023-01-09T04:51:44;7.28;;;1.20;;
45522;SDS011;31254;51.680;5.394;2023-01-09T04:54:13;5.63;;;1.20;;
45522;SDS011;31254;51.680;5.394;2023-01-09T04:56:40;2.40;;;1.10;;
45522;SDS011;31254;51.680;5.394;2023-01-09T04:59:09;6.82;;;1.75;;
45522;SDS011;31254;51.680;5.394;2023-01-09T05:01:38;5.60;;;1.20;;
45522;SDS011;31254;51.680;5.394;2023-01-09T05:04:05;6.07;;;1.33;;
45522;SDS011;31254;51.680;5.394;2023-01-09T05:06:34;2.53;;;1.17;;
45522;SDS011;31254;51.680;5.394;2023-01-09T05:09:06;4.25;;;1.10;;
45522;SDS011;31254;51.680;5.394;2023-01-09T05:11:32;6.47;;;1.33;;
45522;SDS011;31254;51.680;5.394;2023-01-09T05:13:59;6.03;;;1.38;;
45522;SDS011;31254;51.680;5.394;2023-01-09T05:16:25;3.95;;;1.30;;
45522;SDS011;31254;51.680;5.394;2023-01-09T05:18:56;4.32;;;1.15;;
45522;SDS011;31254;51.680;5.394;2023-01-09T05:21:23;4.65;;;1.13;;
45522;SDS011;31254;51.680;5.394;2023-01-09T05:23:52;7.78;;;1.25;;
45522;SDS011;31254;51.680;5.394;2023-01-09T05:26:19;4.40;;;1.35;;
45522;SDS011;31254;51.680;5.394;2023-01-09T05:28:50;6.25;;;1.30;;
45522;SDS011;31254;51.680;5.394;2023-01-09T05:31:17;4.47;;;1.13;;
45522;SDS011;31254;51.680;5.394;2023-01-09T05:33:45;8.02;;;1.50;;
45522;SDS011;31254;51.680;5.394;2023-01-09T05:36:11;7.78;;;1.00;;
45522;SDS011;31254;51.680;5.394;2023-01-09T05:38:40;10.07;;;1.42;;
45522;SDS011;31254;51.680;5.394;2023-01-09T05:41:07;4.50;;;1.13;;
45522;SDS011;31254;51.680;5.394;2023-01-09T05:43:34;5.22;;;1.10;;
45522;SDS011;31254;51.680;5.394;2023-01-09T05:46:03;3.13;;;0.85;;
45522;SDS011;31254;51.680;5.394;2023-01-09T05:48:29;9.32;;;1.27;;
45522;SDS011;31254;51.680;5.394;2023-01-09T05:50:56;6.50;;;1.20;;
45522;SDS011;31254;51.680;5.394;2023-01-09T05:53:25;3.35;;;1.20;;
45522;SDS011;31254;51.680;5.394;2023-01-09T05:55:51;4.30;;;0.90;;
45522;SDS011;31254;51.680;5.394;2023-01-09T05:58:18;4.47;;;1.38;;
45522;SDS011;31254;51.680;5.394;2023-01-09T06:00:47;3.47;;;1.23;;
45522;SDS011;31254;51.680;5.394;2023-01-09T06:03:14;8.88;;;1.38;;
45522;SDS011;31254;51.680;5.394;2023-01-09T06:05:41;10.20;;;1.35;;
45522;SDS011;31254;51.680;5.394;2023-01-09T06:08:10;8.70;;;1.05;;
45522;SDS011;31254;51.680;5.394;2023-01-09T06:10:38;4.20;;;1.48;;
45522;SDS011;31254;51.680;5.394;2023-01-09T06:13:05;5.43;;;1.75;;
45522;SDS011;31254;51.680;5.394;2023-01-09T06:15:31;5.78;;;1.13;;
45522;SDS011;31254;51.680;5.394;2023-01-09T06:18:01;8.32;;;1.17;;
45522;SDS011;31254;51.680;5.394;2023-01-09T06:20:27;9.75;;;1.40;;
45522;SDS011;31254;51.680;5.394;2023-01-09T06:22:54;9.00;;;1.30;;
45522;SDS011;31254;51.680;5.394;2023-01-09T06:25:20;3.13;;;1.17;;
45522;SDS011;31254;51.680;5.394;2023-01-09T06:27:47;8.63;;;1.75;;
45522;SDS011;31254;51.680;5.394;2023-01-09T06:30:14;7.63;;;1.52;;
45522;SDS011;31254;51.680;5.394;2023-01-09T06:32:41;8.43;;;1.30;;
45522;SDS011;31254;51.680;5.394;2023-01-09T06:35:08;6.40;;;1.30;;
45522;SDS011;31254;51.680;5.394;2023-01-09T06:37:35;8.43;;;1.48;;
45522;SDS011;31254;51.680;5.394;2023-01-09T06:40:02;7.55;;;1.55;;
45522;SDS011;31254;51.680;5.394;2023-01-09T06:42:29;7.20;;;1.13;;
45522;SDS011;31254;51.680;5.394;2023-01-09T06:44:56;4.35;;;1.08;;
45522;SDS011;31254;51.680;5.394;2023-01-09T06:47:22;6.32;;;2.03;;
45522;SDS011;31254;51.680;5.394;2023-01-09T06:49:49;9.20;;;1.27;;
45522;SDS011;31254;51.680;5.394;2023-01-09T06:52:16;4.47;;;1.27;;
45522;SDS011;31254;51.680;5.394;2023-01-09T06:54:45;7.43;;;1.63;;
45522;SDS011;31254;51.680;5.394;2023-01-09T06:57:11;7.35;;;1.52;;
45522;SDS011;31254;51.680;5.394;2023-01-09T06:59:41;6.00;;;1.23;;
45522;SDS011;31254;51.680;5.394;2023-01-09T07:02:13;3.95;;;1.20;;
45522;SDS011;31254;51.680;5.394;2023-01-09T07:04:44;6.80;;;1.63;;
45522;SDS011;31254;51.680;5.394;2023-01-09T07:07:11;5.75;;;1.50;;
45522;SDS011;31254;51.680;5.394;2023-01-09T07:09:38;8.63;;;1.85;;
45522;SDS011;31254;51.680;5.394;2023-01-09T07:12:05;8.45;;;1.17;;
45522;SDS011;31254;51.680;5.394;2023-01-09T07:14:32;7.88;;;1.60;;
45522;SDS011;31254;51.680;5.394;2023-01-09T07:16:59;9.95;;;2.13;;
45522;SDS011;31254;51.680;5.394;2023-01-09T07:19:25;5.63;;;1.63;;
45522;SDS011;31254;51.680;5.394;2023-01-09T07:21:52;5.10;;;1.90;;
45522;SDS011;31254;51.680;5.394;2023-01-09T07:24:21;6.63;;;1.50;;
45522;SDS011;31254;51.680;5.394;2023-01-09T07:26:48;9.45;;;1.67;;
45522;SDS011;31254;51.680;5.394;2023-01-09T07:29:16;6.78;;;1.60;;
45522;SDS011;31254;51.680;5.394;2023-01-09T07:31:43;6.97;;;1.50;;
45522;SDS011;31254;51.680;5.394;2023-01-09T07:34:12;3.58;;;1.40;;
45522;SDS011;31254;51.680;5.394;2023-01-09T07:36:39;7.03;;;1.40;;
45522;SDS011;31254;51.680;5.394;2023-01-09T07:39:11;7.93;;;1.40;;
45522;SDS011;31254;51.680;5.394;2023-01-09T07:41:38;6.85;;;1.80;;
45522;SDS011;31254;51.680;5.394;2023-01-09T07:44:05;4.70;;;1.70;;
45522;SDS011;31254;51.680;5.394;2023-01-09T07:46:36;7.63;;;1.45;;
45522;SDS011;31254;51.680;5.394;2023-01-09T07:49:02;6.97;;;1.40;;
45522;SDS011;31254;51.680;5.394;2023-01-09T07:51:31;5.90;;;1.90;;
45522;SDS011;31254;51.680;5.394;2023-01-09T07:53:58;7.70;;;1.55;;
45522;SDS011;31254;51.680;5.394;2023-01-09T07:56:24;7.32;;;1.70;;
45522;SDS011;31254;51.680;5.394;2023-01-09T07:58:51;5.00;;;1.92;;
45522;SDS011;31254;51.680;5.394;2023-01-09T08:01:18;6.75;;;1.90;;
45522;SDS011;31254;51.680;5.394;2023-01-09T08:03:44;6.75;;;2.20;;
45522;SDS011;31254;51.680;5.394;2023-01-09T08:06:11;5.07;;;2.08;;
45522;SDS011;31254;51.680;5.394;2023-01-09T08:08:38;6.60;;;2.20;;
45522;SDS011;31254;51.680;5.394;2023-01-09T08:11:04;6.93;;;2.10;;
45522;SDS011;31254;51.680;5.394;2023-01-09T08:13:31;8.13;;;2.13;;
45522;SDS011;31254;51.680;5.394;2023-01-09T08:16:00;6.57;;;1.83;;
45522;SDS011;31254;51.680;5.394;2023-01-09T08:18:26;5.80;;;2.05;;
45522;SDS011;31254;51.680;5.394;2023-01-09T08:20:53;10.48;;;2.05;;
45522;SDS011;31254;51.680;5.394;2023-01-09T08:23:20;8.60;;;2.03;;
45522;SDS011;31254;51.680;5.394;2023-01-09T08:25:46;8.55;;;2.28;;
45522;SDS011;31254;51.680;5.394;2023-01-09T08:28:13;8.63;;;2.33;;
45522;SDS011;31254;51.680;5.394;2023-01-09T08:30:46;4.57;;;2.17;;
45522;SDS011;31254;51.680;5.394;2023-01-09T08:33:13;7.55;;;2.60;;
45522;SDS011;31254;51.680;5.394;2023-01-09T08:35:41;10.85;;;2.63;;
45522;SDS011;31254;51.680;5.394;2023-01-09T08:38:09;6.00;;;2.25;;
45522;SDS011;31254;51.680;5.394;2023-01-09T08:40:36;6.28;;;2.42;;
45522;SDS011;31254;51.680;5.394;2023-01-09T08:43:03;9.80;;;2.50;;
45522;SDS011;31254;51.680;5.394;2023-01-09T08:46:00;6.78;;;2.58;;
45522;SDS011;31254;51.680;5.394;2023-01-09T08:48:26;6.55;;;2.42;;
45522;SDS011;31254;51.680;5.394;2023-01-09T08:50:53;9.98;;;2.60;;
45522;SDS011;31254;51.680;5.394;2023-01-09T08:53:20;7.35;;;2.42;;
45522;SDS011;31254;51.680;5.394;2023-01-09T08:55:46;7.15;;;2.35;;
45522;SDS011;31254;51.680;5.394;2023-01-09T08:58:13;4.93;;;2.65;;
45522;SDS011;31254;51.680;5.394;2023-01-09T09:00:42;5.18;;;2.10;;
45522;SDS011;31254;51.680;5.394;2023-01-09T09:03:08;7.20;;;2.40;;
45522;SDS011;31254;51.680;5.394;2023-01-09T09:05:38;10.50;;;2.78;;
45522;SDS011;31254;51.680;5.394;2023-01-09T09:08:04;4.38;;;2.40;;
45522;SDS011;31254;51.680;5.394;2023-01-09T09:10:33;8.15;;;2.92;;
45522;SDS011;31254;51.680;5.394;2023-01-09T09:13:00;7.30;;;3.00;;
45522;SDS011;31254;51.680;5.394;2023-01-09T09:15:27;6.65;;;3.28;;
45522;SDS011;31254;51.680;5.394;2023-01-09T09:17:57;7.38;;;3.20;;
45522;SDS011;31254;51.680;5.394;2023-01-09T09:20:28;9.82;;;4.05;;
45522;SDS011;31254;51.680;5.394;2023-01-09T09:23:00;7.05;;;3.28;;
45522;SDS011;31254;51.680;5.394;2023-01-09T09:25:26;9.13;;;3.47;;
45522;SDS011;31254;51.680;5.394;2023-01-09T09:27:53;6.78;;;3.30;;
45522;SDS011;31254;51.680;5.394;2023-01-09T09:30:24;9.73;;;3.47;;
45522;SDS011;31254;51.680;5.394;2023-01-09T09:32:50;5.90;;;3.35;;
45522;SDS011;31254;51.680;5.394;2023-01-09T09:35:19;7.32;;;3.55;;
45522;SDS011;31254;51.680;5.394;2023-01-09T09:37:57;7.15;;;3.40;;
45522;SDS011;31254;51.680;5.394;2023-01-09T09:43:23;8.65;;;3.55;;
45522;SDS011;31254;51.680;5.394;2023-01-09T09:49:11;8.13;;;3.58;;
45522;SDS011;31254;51.680;5.394;2023-01-09T09:54:23;6.22;;;3.53;;
45522;SDS011;31254;51.680;5.394;2023-01-09T09:56:56;10.82;;;4.22;;
45522;SDS011;31254;51.680;5.394;2023-01-09T09:59:30;9.23;;;3.55;;
45522;SDS011;31254;51.680;5.394;2023-01-09T10:02:01;7.97;;;4.35;;
45522;SDS011;31254;51.680;5.394;2023-01-09T10:04:38;9.80;;;3.83;;
45522;SDS011;31254;51.680;5.394;2023-01-09T10:07:14;6.25;;;4.45;;
45522;SDS011;31254;51.680;5.394;2023-01-09T10:09:50;8.25;;;4.32;;
45522;SDS011;31254;51.680;5.394;2023-01-09T10:14:47;11.20;;;4.30;;
45522;SDS011;31254;51.680;5.394;2023-01-09T10:25:27;10.15;;;4.75;;
45522;SDS011;31254;51.680;5.394;2023-01-09T10:30:44;10.32;;;3.75;;
45522;SDS011;31254;51.680;5.394;2023-01-09T10:38:51;6.72;;;2.67;;
45522;SDS011;31254;51.680;5.394;2023-01-09T10:41:23;8.45;;;3.10;;
45522;SDS011;31254;51.680;5.394;2023-01-09T10:44:18;7.50;;;2.83;;
45522;SDS011;31254;51.680;5.394;2023-01-09T10:46:46;5.80;;;2.80;;
45522;SDS011;31254;51.680;5.394;2023-01-09T10:49:18;8.00;;;3.33;;
45522;SDS011;31254;51.680;5.394;2023-01-09T10:51:51;7.90;;;3.08;;
45522;SDS011;31254;51.680;5.394;2023-01-09T10:54:27;7.00;;;3.60;;
45522;SDS011;31254;51.680;5.394;2023-01-09T10:56:55;8.45;;;3.38;;
45522;SDS011;31254;51.680;5.394;2023-01-09T10:59:27;9.38;;;3.53;;
45522;SDS011;31254;51.680;5.394;2023-01-09T11:01:55;13.95;;;3.90;;
45522;SDS011;31254;51.680;5.394;2023-01-09T11:04:28;8.88;;;3.72;;
45522;SDS011;31254;51.680;5.394;2023-01-09T11:07:09;9.68;;;3.67;;
45522;SDS011;31254;51.680;5.394;2023-01-09T11:12:28;8.13;;;4.05;;
45522;SDS011;31254;51.680;5.394;2023-01-09T11:17:41;8.77;;;3.72;;
45522;SDS011;31254;51.680;5.394;2023-01-09T11:22:46;6.75;;;3.13;;
45522;SDS011;31254;51.680;5.394;2023-01-09T11:25:18;11.50;;;3.35;;
45522;SDS011;31254;51.680;5.394;2023-01-09T11:28:02;12.73;;;3.03;;
45522;SDS011;31254;51.680;5.394;2023-01-09T11:30:35;7.65;;;2.88;;
45522;SDS011;31254;51.680;5.394;2023-01-09T11:33:13;8.93;;;2.85;;
45522;SDS011;31254;51.680;5.394;2023-01-09T11:36:00;9.45;;;3.08;;
45522;SDS011;31254;51.680;5.394;2023-01-09T11:38:30;4.65;;;2.35;;
45522;SDS011;31254;51.680;5.394;2023-01-09T11:41:14;8.70;;;3.20;;
45522;SDS011;31254;51.680;5.394;2023-01-09T11:43:47;10.98;;;3.25;;
45522;SDS011;31254;51.680;5.394;2023-01-09T11:49:30;8.70;;;2.10;;
45522;SDS011;31254;51.680;5.394;2023-01-09T11:52:40;8.52;;;1.83;;
45522;SDS011;31254;51.680;5.394;2023-01-09T11:55:08;6.47;;;1.60;;
45522;SDS011;31254;51.680;5.394;2023-01-09T11:57:39;5.82;;;1.63;;
45522;SDS011;31254;51.680;5.394;2023-01-09T12:00:27;10.15;;;2.35;;
45522;SDS011;31254;51.680;5.394;2023-01-09T12:09:05;9.80;;;3.50;;
45522;SDS011;31254;51.680;5.394;2023-01-09T12:14:32;16.55;;;4.32;;
45522;SDS011;31254;51.680;5.394;2023-01-09T12:17:19;10.63;;;4.13;;
45522;SDS011;31254;51.680;5.394;2023-01-09T12:19:51;16.48;;;4.10;;
45522;SDS011;31254;51.680;5.394;2023-01-09T12:25:41;17.88;;;5.00;;
45522;SDS011;31254;51.680;5.394;2023-01-09T12:31:09;11.93;;;3.42;;
45522;SDS011;31254;51.680;5.394;2023-01-09T12:33:42;8.02;;;3.22;;
45522;SDS011;31254;51.680;5.394;2023-01-09T12:36:50;9.90;;;2.55;;
45522;SDS011;31254;51.680;5.394;2023-01-09T12:39:47;10.70;;;2.75;;
45522;SDS011;31254;51.680;5.394;2023-01-09T12:42:29;6.57;;;2.40;;
45522;SDS011;31254;51.680;5.394;2023-01-09T12:48:25;16.10;;;3.63;;
45522;SDS011;31254;51.680;5.394;2023-01-09T12:51:15;16.75;;;3.15;;
45522;SDS011;31254;51.680;5.394;2023-01-09T12:53:46;10.45;;;3.22;;
45522;SDS011;31254;51.680;5.394;2023-01-09T12:56:54;12.23;;;3.22;;
45522;SDS011;31254;51.680;5.394;2023-01-09T13:04:36;9.55;;;3.08;;
45522;SDS011;31254;51.680;5.394;2023-01-09T13:07:12;12.55;;;3.05;;
45522;SDS011;31254;51.680;5.394;2023-01-09T13:09:46;7.80;;;3.42;;
45522;SDS011;31254;51.680;5.394;2023-01-09T13:12:20;8.30;;;3.03;;
45522;SDS011;31254;51.680;5.394;2023-01-09T13:15:00;7.40;;;2.85;;
45522;SDS011;31254;51.680;5.394;2023-01-09T13:23:16;9.27;;;2.40;;
45522;SDS011;31254;51.680;5.394;2023-01-09T13:25:51;11.48;;;2.45;;
45522;SDS011;31254;51.680;5.394;2023-01-09T13:28:24;10.95;;;2.67;;
45522;SDS011;31254;51.680;5.394;2023-01-09T13:34:01;10.30;;;1.90;;
45522;SDS011;31254;51.680;5.394;2023-01-09T13:36:37;10.60;;;1.70;;
45522;SDS011;31254;51.680;5.394;2023-01-09T13:39:20;7.90;;;1.70;;
45522;SDS011;31254;51.680;5.394;2023-01-09T13:42:02;5.60;;;1.30;;
45522;SDS011;31254;51.680;5.394;2023-01-09T13:44:49;7.30;;;1.20;;
45522;SDS011;31254;51.680;5.394;2023-01-09T13:47:20;10.50;;;1.75;;
45522;SDS011;31254;51.680;5.394;2023-01-09T13:50:00;4.80;;;1.27;;
45522;SDS011;31254;51.680;5.394;2023-01-09T13:57:44;5.93;;;1.50;;
45522;SDS011;31254;51.680;5.394;2023-01-09T14:08:01;9.55;;;1.70;;
45522;SDS011;31254;51.680;5.394;2023-01-09T14:10:38;6.05;;;1.73;;
45522;SDS011;31254;51.680;5.394;2023-01-09T14:13:17;6.22;;;1.60;;
45522;SDS011;31254;51.680;5.394;2023-01-09T14:15:47;10.52;;;2.20;;
45522;SDS011;31254;51.680;5.394;2023-01-09T14:20:51;7.03;;;1.92;;
45522;SDS011;31254;51.680;5.394;2023-01-09T14:23:27;8.38;;;1.95;;
45522;SDS011;31254;51.680;5.394;2023-01-09T14:26:18;6.18;;;1.70;;
45522;SDS011;31254;51.680;5.394;2023-01-09T14:28:52;5.38;;;1.52;;
45522;SDS011;31254;51.680;5.394;2023-01-09T14:34:51;5.78;;;1.60;;
45522;SDS011;31254;51.680;5.394;2023-01-09T14:37:33;4.68;;;1.40;;
45522;SDS011;31254;51.680;5.394;2023-01-09T14:40:06;7.13;;;1.88;;
45522;SDS011;31254;51.680;5.394;2023-01-09T14:42:40;7.05;;;1.65;;
45522;SDS011;31254;51.680;5.394;2023-01-09T14:45:13;9.68;;;2.10;;
45522;SDS011;31254;51.680;5.394;2023-01-09T14:50:31;6.28;;;2.22;;
45522;SDS011;31254;51.680;5.394;2023-01-09T14:53:12;7.40;;;2.03;;
45522;SDS011;31254;51.680;5.394;2023-01-09T14:58:32;12.63;;;1.90;;
45522;SDS011;31254;51.680;5.394;2023-01-09T15:01:16;9.85;;;2.40;;
45522;SDS011;31254;51.680;5.394;2023-01-09T15:03:53;11.80;;;2.58;;
45522;SDS011;31254;51.680;5.394;2023-01-09T15:06:28;7.50;;;2.28;;
45522;SDS011;31254;51.680;5.394;2023-01-09T15:09:03;7.55;;;2.05;;
45522;SDS011;31254;51.680;5.394;2023-01-09T15:11:30;9.18;;;2.47;;
45522;SDS011;31254;51.680;5.394;2023-01-09T15:14:00;14.32;;;2.30;;
45522;SDS011;31254;51.680;5.394;2023-01-09T15:16:30;9.75;;;2.42;;
45522;SDS011;31254;51.680;5.394;2023-01-09T15:18:59;8.20;;;1.70;;
45522;SDS011;31254;51.680;5.394;2023-01-09T15:21:29;6.57;;;1.98;;
45522;SDS011;31254;51.680;5.394;2023-01-09T15:24:19;8.25;;;1.20;;
45522;SDS011;31254;51.680;5.394;2023-01-09T15:26:53;7.90;;;1.30;;
45522;SDS011;31254;51.680;5.394;2023-01-09T15:29:24;4.18;;;1.08;;
45522;SDS011;31254;51.680;5.394;2023-01-09T15:34:29;4.45;;;1.25;;
45522;SDS011;31254;51.680;5.394;2023-01-09T15:36:56;8.10;;;1.38;;
45522;SDS011;31254;51.680;5.394;2023-01-09T15:39:27;7.18;;;1.27;;
45522;SDS011;31254;51.680;5.394;2023-01-09T15:41:57;10.77;;;1.48;;
45522;SDS011;31254;51.680;5.394;2023-01-09T15:44:44;11.68;;;1.95;;
45522;SDS011;31254;51.680;5.394;2023-01-09T15:47:15;9.10;;;1.83;;
45522;SDS011;31254;51.680;5.394;2023-01-09T15:49:47;6.50;;;1.63;;
45522;SDS011;31254;51.680;5.394;2023-01-09T15:52:15;8.93;;;1.70;;
45522;SDS011;31254;51.680;5.394;2023-01-09T15:54:43;8.80;;;1.67;;
45522;SDS011;31254;51.680;5.394;2023-01-09T15:59:54;5.25;;;1.73;;
45522;SDS011;31254;51.680;5.394;2023-01-09T16:02:23;10.35;;;1.80;;
45522;SDS011;31254;51.680;5.394;2023-01-09T16:05:13;8.00;;;2.30;;
45522;SDS011;31254;51.680;5.394;2023-01-09T16:07:44;16.40;;;3.80;;
45522;SDS011;31254;51.680;5.394;2023-01-09T16:10:24;9.15;;;3.97;;
45522;SDS011;31254;51.680;5.394;2023-01-09T16:12:55;15.25;;;5.13;;
45522;SDS011;31254;51.680;5.394;2023-01-09T16:15:22;12.18;;;4.43;;
45522;SDS011;31254;51.680;5.394;2023-01-09T16:20:41;11.68;;;2.53;;
45522;SDS011;31254;51.680;5.394;2023-01-09T16:23:19;10.98;;;2.50;;
45522;SDS011;31254;51.680;5.394;2023-01-09T16:25:48;9.45;;;2.13;;
45522;SDS011;31254;51.680;5.394;2023-01-09T16:28:19;8.40;;;1.88;;
45522;SDS011;31254;51.680;5.394;2023-01-09T16:33:22;10.73;;;2.10;;
45522;SDS011;31254;51.680;5.394;2023-01-09T16:35:51;9.15;;;2.10;;
45522;SDS011;31254;51.680;5.394;2023-01-09T16:38:18;12.82;;;2.08;;
45522;SDS011;31254;51.680;5.394;2023-01-09T16:41:05;11.15;;;2.25;;
45522;SDS011;31254;51.680;5.394;2023-01-09T16:43:52;9.77;;;1.80;;
45522;SDS011;31254;51.680;5.394;2023-01-09T16:46:21;11.73;;;2.15;;
45522;SDS011;31254;51.680;5.394;2023-01-09T16:48:48;9.32;;;2.03;;
45522;SDS011;31254;51.680;5.394;2023-01-09T16:51:16;5.07;;;1.35;;
45522;SDS011;31254;51.680;5.394;2023-01-09T16:53:47;9.98;;;1.60;;
45522;SDS011;31254;51.680;5.394;2023-01-09T16:56:16;6.38;;;1.33;;
45522;SDS011;31254;51.680;5.394;2023-01-09T16:58:47;7.32;;;1.30;;
45522;SDS011;31254;51.680;5.394;2023-01-09T17:01:14;6.40;;;1.35;;
45522;SDS011;31254;51.680;5.394;2023-01-09T17:03:41;6.63;;;1.42;;
45522;SDS011;31254;51.680;5.394;2023-01-09T17:06:20;6.60;;;1.63;;
45522;SDS011;31254;51.680;5.394;2023-01-09T17:08:55;10.13;;;1.60;;
45522;SDS011;31254;51.680;5.394;2023-01-09T17:11:24;10.88;;;2.00;;
45522;SDS011;31254;51.680;5.394;2023-01-09T17:13:58;8.90;;;1.67;;
45522;SDS011;31254;51.680;5.394;2023-01-09T17:16:29;12.30;;;1.77;;
45522;SDS011;31254;51.680;5.394;2023-01-09T17:18:55;8.13;;;1.77;;
45522;SDS011;31254;51.680;5.394;2023-01-09T17:21:23;9.38;;;1.60;;
45522;SDS011;31254;51.680;5.394;2023-01-09T17:23:54;5.65;;;1.30;;
45522;SDS011;31254;51.680;5.394;2023-01-09T17:26:41;14.27;;;2.28;;
45522;SDS011;31254;51.680;5.394;2023-01-09T17:29:29;8.75;;;1.67;;